Time;durP1;ratioP1;P1;durP2;ratioP2;P2;SDS_P1;SDS_P2;PMS_P1;PMS_P2;Temp;Humidity;BMP_temperature;BMP_pressure;BME280_temperature;BME280_humidity;BME280_pressure;Samples;Min_cycle;Max_cycle;Signal;HPM_P1;HPM_P2
2021/10/15 00:01:31;;;;;;;10.93;5.80;;;13.80;69.40;;;;;;5035999;28;20170;-86
2021/10/15 00:03:58;;;;;;;9.33;6.00;;;14.00;69.60;;;;;;5037492;28;20209;-86
2021/10/15 00:06:26;;;;;;;10.10;5.30;;;13.90;69.40;;;;;;5019550;28;20460;-86
2021/10/15 00:08:53;;;;;;;7.65;5.18;;;14.00;69.20;;;;;;5035830;28;20178;-86
2021/10/15 00:11:18;;;;;;;6.30;4.53;;;14.00;69.30;;;;;;5018476;28;20174;-87
2021/10/15 00:13:44;;;;;;;7.50;5.10;;;13.90;69.50;;;;;;5034840;28;20288;-87
2021/10/15 00:16:10;;;;;;;5.47;4.57;;;13.90;69.60;;;;;;5038050;28;20173;-86
2021/10/15 00:18:35;;;;;;;10.50;5.83;;;13.90;69.60;;;;;;5038724;28;20223;-86
2021/10/15 00:21:01;;;;;;;7.40;4.77;;;13.90;69.80;;;;;;5037231;28;20191;-87
2021/10/15 00:23:27;;;;;;;9.77;5.20;;;13.80;69.90;;;;;;5036666;28;20236;-86
2021/10/15 00:25:53;;;;;;;12.70;5.47;;;13.80;70.00;;;;;;5038102;28;20459;-86
2021/10/15 00:28:18;;;;;;;7.77;4.57;;;13.80;70.00;;;;;;5056864;28;20692;-86
2021/10/15 00:30:44;;;;;;;8.07;5.37;;;13.90;70.30;;;;;;5056822;28;20165;-86
2021/10/15 00:33:10;;;;;;;6.50;5.20;;;13.70;70.20;;;;;;5038314;28;20189;-87
2021/10/15 00:35:36;;;;;;;9.10;5.53;;;13.80;70.40;;;;;;5056649;28;20403;-87
2021/10/15 00:38:01;;;;;;;16.90;5.17;;;13.90;70.50;;;;;;5041381;28;20203;-87
2021/10/15 00:40:27;;;;;;;11.30;4.93;;;13.80;70.40;;;;;;5064257;28;20698;-87
2021/10/15 00:42:52;;;;;;;8.97;4.17;;;13.90;70.40;;;;;;5047269;28;20726;-86
2021/10/15 00:45:18;;;;;;;6.67;5.13;;;13.80;70.40;;;;;;5054578;28;20200;-86
2021/10/15 00:47:44;;;;;;;12.33;5.67;;;13.80;70.50;;;;;;5070569;28;20188;-86
2021/10/15 00:50:10;;;;;;;8.70;5.27;;;13.70;70.70;;;;;;5059300;28;20177;-86
2021/10/15 00:52:37;;;;;;;7.33;5.50;;;13.70;70.90;;;;;;5056918;28;20725;-85
2021/10/15 00:55:03;;;;;;;8.30;5.25;;;13.70;71.10;;;;;;5056343;28;20455;-86
2021/10/15 00:57:29;;;;;;;8.27;5.60;;;13.70;71.20;;;;;;5029209;28;20201;-86
2021/10/15 00:59:55;;;;;;;7.80;4.80;;;13.80;71.30;;;;;;5025732;28;20645;-86
2021/10/15 01:02:21;;;;;;;13.17;5.50;;;13.70;71.20;;;;;;5024597;28;20413;-86
2021/10/15 01:04:47;;;;;;;6.70;5.03;;;13.60;71.40;;;;;;5055319;28;20288;-86
2021/10/15 01:07:12;;;;;;;12.40;5.20;;;13.60;71.60;;;;;;5043312;28;20266;-86
2021/10/15 01:09:39;;;;;;;9.70;5.50;;;13.70;71.70;;;;;;5071988;28;20181;-86
2021/10/15 01:12:05;;;;;;;7.53;4.45;;;13.90;71.60;;;;;;5049347;28;20267;-86
2021/10/15 01:14:31;;;;;;;4.88;4.35;;;13.80;71.40;;;;;;5046252;28;20275;-86
2021/10/15 01:17:00;;;;;;;8.13;6.00;;;14.00;71.40;;;;;;5058990;28;20620;-86
2021/10/15 01:19:25;;;;;;;9.93;5.45;;;13.90;71.10;;;;;;5062361;28;20411;-86
2021/10/15 01:21:51;;;;;;;12.60;5.70;;;13.90;71.40;;;;;;5060667;28;20256;-86
2021/10/15 01:24:18;;;;;;;7.23;5.53;;;14.00;71.20;;;;;;5051362;28;20192;-86
2021/10/15 01:26:44;;;;;;;10.55;4.90;;;14.10;71.30;;;;;;5058390;28;20204;-86
2021/10/15 01:29:11;;;;;;;10.82;4.95;;;14.10;70.90;;;;;;5074141;28;20177;-86
2021/10/15 01:31:37;;;;;;;6.53;4.70;;;14.10;71.00;;;;;;5074126;28;20291;-86
2021/10/15 01:34:03;;;;;;;7.47;4.53;;;14.10;70.80;;;;;;5048648;28;20288;-86
2021/10/15 01:36:29;;;;;;;14.03;6.10;;;14.10;70.90;;;;;;5058514;28;20233;-86
2021/10/15 01:38:55;;;;;;;6.07;5.13;;;14.10;70.90;;;;;;5041154;28;20420;-86
2021/10/15 01:41:21;;;;;;;10.17;5.13;;;14.00;71.00;;;;;;5045745;28;20216;-86
2021/10/15 01:43:47;;;;;;;7.70;5.75;;;14.00;71.10;;;;;;5070369;28;20193;-86
2021/10/15 01:46:13;;;;;;;7.57;4.75;;;14.10;71.80;;;;;;5055303;28;20201;-86
2021/10/15 01:48:39;;;;;;;8.93;5.33;;;14.00;71.20;;;;;;5062967;28;20204;-86
2021/10/15 01:51:05;;;;;;;6.53;5.03;;;14.00;71.30;;;;;;5063258;28;20420;-86
2021/10/15 01:53:31;;;;;;;8.70;4.93;;;14.00;71.40;;;;;;5080317;28;20201;-87
2021/10/15 01:55:57;;;;;;;10.13;5.30;;;14.10;71.40;;;;;;5059883;28;20466;-86
2021/10/15 01:58:23;;;;;;;9.70;5.10;;;14.00;71.20;;;;;;5044594;28;20178;-86
2021/10/15 02:00:49;;;;;;;8.70;4.80;;;14.00;71.30;;;;;;5064286;28;20197;-87
2021/10/15 02:03:15;;;;;;;10.70;5.50;;;14.00;71.50;;;;;;5063367;28;20189;-85
2021/10/15 02:05:41;;;;;;;7.70;6.35;;;13.90;71.60;;;;;;5077026;28;20255;-85
2021/10/15 02:08:07;;;;;;;6.67;5.60;;;13.80;71.70;;;;;;5072649;28;20181;-85
2021/10/15 02:10:33;;;;;;;7.78;5.40;;;13.70;72.10;;;;;;5074417;28;20450;-85
2021/10/15 02:12:59;;;;;;;14.30;6.30;;;13.70;72.40;;;;;;5075579;28;20194;-86
2021/10/15 02:15:25;;;;;;;15.63;5.77;;;13.80;72.40;;;;;;5057748;28;20178;-85
2021/10/15 02:17:51;;;;;;;10.97;5.63;;;13.70;72.60;;;;;;5056347;28;20182;-85
2021/10/15 02:20:18;;;;;;;6.43;4.53;;;13.70;72.80;;;;;;5057604;28;20205;-85
2021/10/15 02:22:46;;;;;;;11.13;6.32;;;13.80;72.70;;;;;;5074201;28;20428;-85
2021/10/15 02:25:13;;;;;;;7.15;5.38;;;13.80;72.90;;;;;;5075524;28;20219;-85
2021/10/15 02:27:39;;;;;;;8.27;5.72;;;13.70;73.10;;;;;;5076314;28;20209;-85
2021/10/15 02:30:08;;;;;;;11.80;4.80;;;13.60;73.30;;;;;;5067340;28;20189;-86
2021/10/15 02:32:33;;;;;;;8.13;4.45;;;13.70;73.60;;;;;;5065483;28;20480;-85
2021/10/15 02:34:59;;;;;;;20.17;5.90;;;13.70;73.60;;;;;;5058952;28;20216;-85
2021/10/15 02:37:25;;;;;;;7.13;5.32;;;13.60;73.90;;;;;;5075302;28;20165;-85
2021/10/15 02:39:51;;;;;;;9.67;5.40;;;13.60;74.20;;;;;;5059779;28;20162;-85
2021/10/15 02:42:17;;;;;;;6.97;4.53;;;13.70;74.10;;;;;;5060292;28;20178;-85
2021/10/15 02:44:43;;;;;;;7.93;5.50;;;13.70;74.20;;;;;;5075796;28;20206;-86
2021/10/15 02:47:09;;;;;;;6.43;5.10;;;13.70;74.20;;;;;;5060843;28;20472;-85
2021/10/15 02:49:34;;;;;;;7.00;5.20;;;13.80;74.30;;;;;;5059367;28;20186;-85
2021/10/15 02:52:00;;;;;;;8.07;5.60;;;13.80;74.10;;;;;;5057713;28;20430;-84
2021/10/15 02:54:26;;;;;;;7.40;5.50;;;13.70;74.20;;;;;;5059652;28;20194;-86
2021/10/15 02:56:52;;;;;;;6.90;5.20;;;13.70;74.40;;;;;;5060124;28;20185;-85
2021/10/15 02:59:17;;;;;;;6.83;5.93;;;13.80;74.50;;;;;;5059487;28;20249;-85
2021/10/15 03:01:43;;;;;;;10.23;5.13;;;13.80;74.40;;;;;;5060341;28;20177;-85
2021/10/15 03:04:09;;;;;;;6.57;5.67;;;13.70;74.60;;;;;;5058553;28;20479;-86
2021/10/15 03:06:35;;;;;;;9.33;5.93;;;13.70;74.70;;;;;;5062270;28;20216;-87
2021/10/15 03:09:01;;;;;;;11.67;5.00;;;13.70;74.80;;;;;;5059098;28;20429;-86
2021/10/15 03:11:27;;;;;;;9.73;6.70;;;13.70;75.00;;;;;;5059371;28;20447;-86
2021/10/15 03:13:53;;;;;;;7.83;5.50;;;13.70;75.00;;;;;;5058348;28;20427;-85
2021/10/15 03:16:19;;;;;;;9.90;5.03;;;13.80;74.50;;;;;;5057375;28;20420;-85
2021/10/15 03:18:44;;;;;;;8.40;5.37;;;13.90;75.20;;;;;;5056598;28;20417;-85
2021/10/15 03:21:10;;;;;;;9.60;5.60;;;13.90;74.90;;;;;;5052857;28;20416;-87
2021/10/15 03:23:36;;;;;;;13.00;4.93;;;14.20;74.70;;;;;;5072816;28;20232;-86
2021/10/15 03:26:02;;;;;;;7.10;5.60;;;14.00;74.40;;;;;;5079214;28;20293;-86
2021/10/15 03:28:28;;;;;;;5.90;5.40;;;14.10;74.60;;;;;;5078885;28;20439;-86
2021/10/15 03:30:53;;;;;;;8.13;4.60;;;14.10;74.50;;;;;;5062992;28;20200;-86
2021/10/15 03:33:19;;;;;;;7.80;6.00;;;14.20;74.50;;;;;;5078757;28;20204;-86
2021/10/15 03:35:45;;;;;;;6.07;4.53;;;14.10;74.70;;;;;;5078995;28;20249;-86
2021/10/15 03:38:10;;;;;;;10.27;5.53;;;14.10;74.80;;;;;;5079087;28;20403;-85
2021/10/15 03:40:36;;;;;;;7.87;5.10;;;14.00;74.90;;;;;;5073741;28;20632;-86
2021/10/15 03:43:03;;;;;;;6.90;4.87;;;14.00;75.20;;;;;;5073416;28;20161;-87
2021/10/15 03:45:29;;;;;;;10.13;5.45;;;13.80;75.50;;;;;;5069738;28;20420;-86
2021/10/15 03:47:55;;;;;;;7.13;5.30;;;13.90;75.70;;;;;;5068759;28;20259;-86
2021/10/15 03:50:21;;;;;;;9.50;5.80;;;14.00;75.80;;;;;;5069904;28;20416;-85
2021/10/15 03:52:46;;;;;;;7.57;6.40;;;13.90;75.80;;;;;;5078423;28;20165;-86
2021/10/15 03:55:13;;;;;;;9.10;6.60;;;14.00;75.70;;;;;;5078454;28;20180;-83
2021/10/15 03:57:40;;;;;;;7.40;6.32;;;13.90;75.90;;;;;;5061571;28;20200;-84
2021/10/15 04:00:08;;;;;;;11.57;6.22;;;14.00;76.00;;;;;;5077221;28;20190;-84
2021/10/15 04:02:43;;;;;;;8.70;5.47;;;14.10;75.80;;;;;;5075094;28;20185;-84
2021/10/15 04:05:10;;;;;;;9.40;6.00;;;14.10;75.80;;;;;;5070749;28;20267;-85
2021/10/15 04:07:37;;;;;;;9.50;6.65;;;14.00;75.80;;;;;;5059795;28;20703;-85
2021/10/15 04:10:05;;;;;;;17.67;7.22;;;14.00;76.00;;;;;;5060799;28;20203;-85
2021/10/15 04:12:30;;;;;;;8.05;5.82;;;14.10;76.10;;;;;;5046968;28;20196;-85
2021/10/15 04:14:57;;;;;;;19.17;6.63;;;14.30;75.90;;;;;;5075151;28;20209;-85
2021/10/15 04:17:23;;;;;;;14.10;6.85;;;14.10;75.60;;;;;;5074255;28;20644;-85
2021/10/15 04:19:49;;;;;;;10.10;7.10;;;14.00;75.80;;;;;;5073894;28;20207;-84
2021/10/15 04:22:15;;;;;;;8.35;5.95;;;14.00;76.00;;;;;;5056264;28;20436;-84
2021/10/15 04:24:41;;;;;;;9.93;7.20;;;14.10;76.20;;;;;;5072161;28;20200;-85
2021/10/15 04:27:07;;;;;;;9.37;6.43;;;14.00;76.20;;;;;;5053010;28;20467;-85
2021/10/15 04:29:33;;;;;;;14.05;8.00;;;13.90;76.40;;;;;;5052104;28;20208;-85
2021/10/15 04:31:59;;;;;;;9.98;6.85;;;14.00;76.70;;;;;;5073420;28;20181;-86
2021/10/15 04:34:25;;;;;;;10.20;6.43;;;14.00;76.50;;;;;;5053699;28;20764;-86
2021/10/15 04:36:51;;;;;;;10.13;5.80;;;14.10;76.50;;;;;;5038158;28;20185;-86
2021/10/15 04:39:17;;;;;;;10.27;6.90;;;14.00;76.70;;;;;;5039129;28;20461;-85
2021/10/15 04:41:42;;;;;;;10.30;7.60;;;14.00;76.90;;;;;;5055838;28;20177;-85
2021/10/15 04:44:08;;;;;;;13.73;8.50;;;14.10;77.00;;;;;;5037129;28;20497;-85
2021/10/15 04:46:34;;;;;;;6.00;5.40;;;14.00;77.00;;;;;;5038317;28;20208;-85
2021/10/15 04:49:00;;;;;;;9.80;6.63;;;13.90;77.20;;;;;;5056207;28;20495;-85
2021/10/15 04:51:26;;;;;;;9.13;5.90;;;13.90;77.20;;;;;;5036912;28;20510;-85
2021/10/15 04:53:51;;;;;;;14.50;7.37;;;13.90;77.40;;;;;;5048781;28;20247;-85
2021/10/15 04:56:17;;;;;;;9.23;7.03;;;13.90;77.50;;;;;;5041478;28;20180;-85
2021/10/15 04:58:43;;;;;;;12.40;7.90;;;13.90;77.70;;;;;;5025098;28;20196;-84
2021/10/15 05:01:08;;;;;;;9.50;7.13;;;13.90;77.60;;;;;;5056533;28;20543;-84
2021/10/15 05:03:34;;;;;;;9.17;7.30;;;13.90;77.80;;;;;;5037908;28;20197;-84
2021/10/15 05:06:00;;;;;;;13.30;7.67;;;13.90;77.90;;;;;;5037723;28;20281;-84
2021/10/15 05:08:38;;;;;;;12.60;7.83;;;14.10;77.80;;;;;;5034322;28;20429;-85
2021/10/15 05:11:04;;;;;;;12.63;7.45;;;14.00;77.50;;;;;;5021062;28;20182;-84
2021/10/15 05:13:30;;;;;;;19.43;8.30;;;14.10;77.70;;;;;;5038788;28;20686;-84
2021/10/15 05:15:55;;;;;;;8.30;6.87;;;14.20;77.30;;;;;;5040073;28;20789;-84
2021/10/15 05:18:21;;;;;;;12.27;8.40;;;14.10;77.20;;;;;;5058752;28;20780;-84
2021/10/15 05:20:47;;;;;;;16.20;8.30;;;14.00;77.60;;;;;;5060469;28;20732;-85
2021/10/15 05:23:13;;;;;;;16.70;7.53;;;14.00;77.50;;;;;;5040789;28;20483;-82
2021/10/15 05:25:40;;;;;;;12.40;7.97;;;13.90;77.80;;;;;;5058165;28;20295;-82
2021/10/15 05:28:06;;;;;;;17.45;8.65;;;13.90;78.30;;;;;;5040402;28;20247;-82
2021/10/15 05:30:32;;;;;;;14.18;8.50;;;14.00;78.40;;;;;;5060678;28;20169;-82
2021/10/15 05:32:58;;;;;;;13.60;8.10;;;13.90;78.50;;;;;;5024649;28;20699;-83
2021/10/15 05:35:24;;;;;;;13.17;7.80;;;14.10;78.50;;;;;;5031044;28;20177;-83
2021/10/15 05:37:50;;;;;;;10.90;7.88;;;14.10;78.40;;;;;;5021087;28;20420;-82
2021/10/15 05:40:16;;;;;;;11.10;7.70;;;14.10;78.30;;;;;;5022257;28;20174;-82
2021/10/15 05:42:46;;;;;;;19.00;8.87;;;14.10;78.30;;;;;;5021901;28;20408;-82
2021/10/15 05:45:12;;;;;;;18.95;8.38;;;14.00;78.40;;;;;;5020590;28;20445;-83
2021/10/15 05:47:37;;;;;;;14.50;8.40;;;14.10;78.70;;;;;;5039482;28;20563;-82
2021/10/15 05:50:04;;;;;;;10.70;8.73;;;14.10;78.50;;;;;;5021232;28;20986;-83
2021/10/15 05:52:34;;;;;;;13.57;8.38;;;14.10;79.20;;;;;;5024993;28;20178;-83
2021/10/15 05:55:16;;;;;;;9.73;7.30;;;14.00;78.80;;;;;;5039971;28;20197;-82
2021/10/15 06:00:24;;;;;;;14.48;9.18;;;14.10;79.00;;;;;;5060606;28;20557;-83
2021/10/15 06:02:50;;;;;;;14.25;9.32;;;14.10;79.00;;;;;;5058535;28;20310;-83
2021/10/15 06:15:55;;;;;;;15.80;9.80;;;14.30;78.60;;;;;;5063652;28;20199;-83
2021/10/15 06:18:22;;;;;;;15.07;8.63;;;14.30;78.90;;;;;;5061430;28;20658;-83
2021/10/15 06:20:49;;;;;;;12.93;8.50;;;14.40;78.90;;;;;;5061118;28;20189;-83
2021/10/15 06:23:16;;;;;;;11.60;8.45;;;14.40;78.70;;;;;;5061861;28;20201;-83
2021/10/15 06:25:42;;;;;;;11.02;8.88;;;14.40;78.70;;;;;;5062719;28;20201;-83
2021/10/15 06:28:08;;;;;;;14.40;9.82;;;14.50;78.80;;;;;;5046201;28;20588;-83
2021/10/15 06:30:34;;;;;;;17.40;10.15;;;14.50;78.80;;;;;;5044244;28;20186;-82
2021/10/15 06:33:00;;;;;;;17.42;10.05;;;14.50;78.60;;;;;;5069321;28;20309;-83
2021/10/15 06:35:26;;;;;;;18.30;9.63;;;14.40;78.70;;;;;;5070134;28;20190;-83
2021/10/15 06:37:52;;;;;;;11.90;9.20;;;14.40;78.80;;;;;;5062795;28;20411;-82
2021/10/15 06:40:19;;;;;;;13.85;9.40;;;14.40;78.80;;;;;;5075397;28;20422;-83
2021/10/15 06:42:46;;;;;;;14.98;9.60;;;14.60;78.90;;;;;;5069322;28;20177;-83
2021/10/15 06:45:12;;;;;;;10.80;8.55;;;14.50;78.60;;;;;;5061596;28;20193;-83
2021/10/15 06:47:37;;;;;;;13.43;9.10;;;14.60;78.50;;;;;;5061530;28;20209;-83
2021/10/15 06:50:04;;;;;;;15.97;10.10;;;14.60;78.50;;;;;;5061559;28;20177;-84
2021/10/15 06:52:36;;;;;;;13.40;9.30;;;14.70;78.50;;;;;;5057740;28;20970;-83
2021/10/15 06:55:03;;;;;;;14.93;9.00;;;14.70;78.40;;;;;;5052445;28;20198;-84
2021/10/15 06:57:29;;;;;;;19.75;11.63;;;14.70;78.50;;;;;;5041557;28;20178;-83
2021/10/15 06:59:55;;;;;;;12.13;9.63;;;14.80;78.20;;;;;;5048603;28;20249;-84
2021/10/15 07:02:21;;;;;;;15.87;9.23;;;14.80;78.10;;;;;;5056198;28;20732;-84
2021/10/15 07:04:47;;;;;;;12.02;9.38;;;14.80;78.00;;;;;;5040542;28;20601;-83
2021/10/15 07:07:12;;;;;;;16.43;9.60;;;14.80;78.10;;;;;;5041359;28;20284;-84
2021/10/15 07:09:38;;;;;;;14.47;9.10;;;14.90;78.20;;;;;;5023255;28;20256;-83
2021/10/15 07:12:04;;;;;;;21.90;10.53;;;14.90;78.00;;;;;;5027479;28;20600;-84
2021/10/15 07:14:30;;;;;;;10.30;8.00;;;14.90;78.20;;;;;;5061221;28;20272;-83
2021/10/15 07:16:55;;;;;;;18.77;9.90;;;15.00;78.00;;;;;;5042306;28;20507;-83
2021/10/15 07:19:22;;;;;;;14.00;10.00;;;15.00;78.70;;;;;;5023638;28;20243;-84
2021/10/15 07:21:48;;;;;;;19.30;10.00;;;15.00;77.90;;;;;;5041321;28;20691;-83
2021/10/15 07:24:14;;;;;;;16.25;10.32;;;14.90;78.10;;;;;;5022326;28;20209;-83
2021/10/15 07:26:40;;;;;;;19.47;10.73;;;14.80;78.50;;;;;;5023310;28;20201;-84
2021/10/15 07:29:06;;;;;;;15.77;9.00;;;14.90;78.70;;;;;;5022782;28;20177;-85
2021/10/15 07:31:33;;;;;;;17.52;11.90;;;15.00;78.70;;;;;;5020955;28;20174;-84
2021/10/15 07:33:59;;;;;;;21.58;11.70;;;14.90;78.70;;;;;;5020674;28;20228;-84
2021/10/15 07:36:25;;;;;;;18.90;10.87;;;14.90;79.00;;;;;;5022002;28;20181;-84
2021/10/15 07:38:50;;;;;;;17.00;9.73;;;15.00;79.00;;;;;;5022079;28;20413;-84
2021/10/15 07:41:18;;;;;;;18.33;10.40;;;15.10;78.90;;;;;;5021449;28;20425;-84
2021/10/15 07:43:47;;;;;;;14.30;9.90;;;15.00;78.90;;;;;;5038096;28;20236;-85
2021/10/15 07:46:12;;;;;;;19.83;11.45;;;14.90;79.20;;;;;;5020126;28;20229;-85
2021/10/15 07:48:38;;;;;;;24.20;11.67;;;14.80;79.40;;;;;;5021986;28;20174;-84
2021/10/15 07:51:04;;;;;;;18.50;11.13;;;14.80;80.00;;;;;;5024507;28;20425;-84
2021/10/15 07:53:30;;;;;;;19.03;12.27;;;14.90;80.30;;;;;;5022294;28;20723;-84
2021/10/15 07:55:56;;;;;;;16.07;10.60;;;14.70;80.80;;;;;;5022511;28;20180;-84
2021/10/15 07:58:21;;;;;;;22.73;12.33;;;14.80;81.40;;;;;;5022187;28;20206;-84
2021/10/15 08:00:47;;;;;;;20.80;12.40;;;14.80;81.60;;;;;;5037305;28;20461;-87
2021/10/15 08:03:13;;;;;;;17.60;11.90;;;14.90;81.80;;;;;;5018785;28;20692;-87
2021/10/15 08:05:38;;;;;;;22.47;12.80;;;14.90;81.80;;;;;;5053437;28;20189;-87
2021/10/15 08:08:04;;;;;;;17.37;12.60;;;15.00;81.70;;;;;;5057116;28;20177;-88
2021/10/15 08:10:30;;;;;;;23.53;12.73;;;14.90;81.90;;;;;;5041992;28;20178;-88
2021/10/15 08:12:57;;;;;;;20.80;13.60;;;14.90;82.20;;;;;;5067315;28;20420;-87
2021/10/15 08:15:24;;;;;;;22.52;14.13;;;14.80;82.50;;;;;;5060248;28;20256;-88
2021/10/15 08:17:50;;;;;;;19.25;14.80;;;14.70;83.10;;;;;;5058702;28;20204;-88
2021/10/15 08:20:19;;;;;;;22.00;14.40;;;14.60;83.60;;;;;;5059164;28;20535;-88
2021/10/15 08:22:45;;;;;;;23.48;15.63;;;14.50;84.10;;;;;;5054679;28;20181;-88
2021/10/15 08:25:11;;;;;;;25.17;15.45;;;14.50;84.40;;;;;;5038070;28;20224;-88
2021/10/15 08:27:37;;;;;;;22.93;14.20;;;14.60;84.70;;;;;;5040006;28;20201;-88
2021/10/15 08:30:04;;;;;;;22.90;15.20;;;14.70;84.90;;;;;;5055312;28;20555;-88
2021/10/15 08:32:30;;;;;;;25.88;14.70;;;14.60;84.80;;;;;;5055107;28;20511;-88
2021/10/15 08:34:56;;;;;;;29.17;16.80;;;14.60;84.90;;;;;;5054590;28;20224;-88
2021/10/15 08:37:21;;;;;;;26.47;16.60;;;14.70;85.00;;;;;;5052890;28;20283;-87
2021/10/15 08:39:47;;;;;;;24.43;17.23;;;14.50;85.20;;;;;;5052493;28;20240;-88
2021/10/15 08:42:13;;;;;;;31.23;18.87;;;14.30;85.80;;;;;;5041725;28;20416;-88
2021/10/15 08:44:45;;;;;;;36.23;21.23;;;14.30;86.60;;;;;;5053162;28;20198;-88
2021/10/15 08:47:14;;;;;;;41.03;26.17;;;14.20;87.00;;;;;;5034346;28;20213;-88
2021/10/15 08:49:40;;;;;;;38.58;24.65;;;14.10;87.50;;;;;;5050254;28;20186;-88
2021/10/15 08:52:06;;;;;;;28.52;21.25;;;14.10;88.10;;;;;;5052360;28;20185;-88
2021/10/15 08:54:33;;;;;;;24.77;15.30;;;14.20;88.20;;;;;;5047643;28;20747;-88
2021/10/15 08:57:00;;;;;;;27.83;18.90;;;14.30;88.00;;;;;;5051106;28;20186;-88
2021/10/15 08:59:40;;;;;;;29.00;19.02;;;14.10;88.20;;;;;;5040719;28;20185;-88
2021/10/15 09:02:21;;;;;;;25.50;16.98;;;14.30;88.70;;;;;;5041251;28;20271;-88
2021/10/15 09:04:51;;;;;;;18.80;12.00;;;14.30;88.70;;;;;;5058631;28;20271;-83
2021/10/15 09:07:20;;;;;;;17.58;9.73;;;14.40;88.40;;;;;;5053653;28;20221;-83
2021/10/15 09:09:47;;;;;;;13.80;10.57;;;14.30;88.40;;;;;;5063996;28;20216;-83
2021/10/15 09:12:16;;;;;;;11.05;8.88;;;14.30;88.40;;;;;;5053832;28;20280;-83
2021/10/15 09:14:42;;;;;;;11.55;9.23;;;14.40;88.30;;;;;;5055601;28;20198;-83
2021/10/15 09:17:11;;;;;;;9.63;7.68;;;14.30;88.60;;;;;;5038251;28;20575;-83
2021/10/15 09:19:37;;;;;;;8.25;5.50;;;14.40;88.80;;;;;;5040396;28;20186;-84
2021/10/15 09:22:20;;;;;;;10.20;6.10;;;14.30;88.30;;;;;;5057337;28;20524;-83
2021/10/15 09:24:58;;;;;;;9.10;4.55;;;14.30;88.00;;;;;;5039789;28;20270;-83
2021/10/15 09:27:26;;;;;;;9.23;4.70;;;14.10;87.20;;;;;;5043374;28;20193;-83
2021/10/15 09:30:00;;;;;;;5.57;4.68;;;14.20;87.20;;;;;;5057964;28;20177;-84
2021/10/15 09:32:29;;;;;;;5.70;3.40;;;14.20;86.80;;;;;;5054964;28;20174;-83
2021/10/15 09:34:55;;;;;;;10.32;3.38;;;14.10;86.00;;;;;;5040028;28;20742;-83
2021/10/15 09:37:36;;;;;;;3.40;2.63;;;14.10;85.60;;;;;;5039256;28;20661;-82
2021/10/15 09:40:10;;;;;;;4.75;2.45;;;14.00;85.20;;;;;;5057372;28;20170;-82
2021/10/15 09:42:53;;;;;;;4.47;2.38;;;14.00;85.00;;;;;;5049790;28;20178;-82
2021/10/15 09:45:46;;;;;;;2.40;1.52;;;13.90;83.40;;;;;;5062379;28;20181;-82
2021/10/15 09:48:28;;;;;;;2.65;1.42;;;13.80;82.70;;;;;;5054869;28;20615;-83
2021/10/15 09:51:10;;;;;;;2.95;2.17;;;13.70;82.50;;;;;;5063876;28;20168;-82
2021/10/15 09:53:37;;;;;;;7.25;2.15;;;13.80;83.00;;;;;;5062260;28;20228;-82
2021/10/15 09:56:03;;;;;;;7.18;1.83;;;13.90;83.10;;;;;;5064552;28;20174;-82
2021/10/15 09:58:29;;;;;;;4.43;2.15;;;13.90;82.90;;;;;;5045968;28;20193;-82
2021/10/15 10:00:55;;;;;;;10.60;1.90;;;13.90;83.00;;;;;;5049770;28;20212;-82
2021/10/15 10:03:28;;;;;;;2.97;2.38;;;13.90;82.80;;;;;;5058617;28;20209;-82
2021/10/15 10:06:11;;;;;;;8.18;1.90;;;13.80;83.40;;;;;;5001497;28;20246;-82
2021/10/15 10:08:38;;;;;;;10.90;1.97;;;13.80;84.00;;;;;;5002046;28;20195;-82
2021/10/15 10:11:04;;;;;;;5.25;2.25;;;13.90;84.80;;;;;;5002104;28;20234;-81
2021/10/15 10:13:31;;;;;;;7.13;2.40;;;13.90;85.30;;;;;;5012913;28;20688;-82
2021/10/15 10:15:57;;;;;;;5.88;2.30;;;14.00;85.50;;;;;;4986146;28;20191;-82
2021/10/15 10:18:31;;;;;;;5.20;1.93;;;14.10;85.70;;;;;;4965955;28;20272;-82
2021/10/15 10:21:33;;;;;;;8.25;2.38;;;14.20;85.80;;;;;;4966940;28;20563;-82
2021/10/15 10:24:06;;;;;;;5.80;2.20;;;14.40;85.70;;;;;;4961749;28;20773;-83
2021/10/15 10:26:47;;;;;;;7.05;2.42;;;14.40;84.60;;;;;;4982148;28;20226;-82
2021/10/15 10:29:13;;;;;;;2.05;1.40;;;14.50;84.30;;;;;;4981252;28;20255;-82
2021/10/15 10:31:39;;;;;;;7.50;2.30;;;14.60;83.80;;;;;;4988360;28;20274;-82
2021/10/15 10:34:08;;;;;;;5.53;2.17;;;14.70;83.60;;;;;;4999794;28;20237;-82
2021/10/15 10:36:37;;;;;;;6.22;2.38;;;14.70;83.20;;;;;;5013259;28;20417;-82
2021/10/15 10:39:27;;;;;;;5.85;2.13;;;14.90;83.00;;;;;;5041934;28;20198;-82
2021/10/15 10:42:30;;;;;;;6.57;2.03;;;14.90;82.40;;;;;;5038413;28;20281;-82
2021/10/15 10:44:56;;;;;;;6.15;2.22;;;14.80;82.30;;;;;;5019798;28;20289;-82
2021/10/15 10:47:24;;;;;;;4.90;2.67;;;14.90;81.60;;;;;;5037263;28;20270;-82
2021/10/15 10:50:08;;;;;;;3.08;1.85;;;15.00;81.00;;;;;;5055303;28;20188;-83
2021/10/15 10:53:01;;;;;;;4.75;1.80;;;15.00;80.80;;;;;;5076783;28;20223;-83
2021/10/15 10:55:54;;;;;;;8.68;2.55;;;15.10;80.70;;;;;;5061421;28;20182;-83
2021/10/15 10:58:38;;;;;;;7.40;2.60;;;15.40;80.80;;;;;;5052315;28;20170;-82
2021/10/15 11:01:27;;;;;;;7.93;2.45;;;15.50;79.80;;;;;;5039421;28;20569;-83
2021/10/15 11:03:54;;;;;;;7.25;1.90;;;15.60;79.50;;;;;;5058547;28;20246;-83
2021/10/15 11:06:21;;;;;;;8.93;2.38;;;15.40;78.70;;;;;;5048846;28;20198;-83
2021/10/15 11:08:46;;;;;;;3.22;2.03;;;15.60;77.90;;;;;;5022979;28;20178;-83
2021/10/15 11:11:21;;;;;;;6.72;1.77;;;15.50;77.60;;;;;;5038560;28;20202;-83
2021/10/15 11:13:47;;;;;;;7.50;2.03;;;15.60;76.90;;;;;;5053484;28;20193;-83
2021/10/15 11:16:19;;;;;;;11.80;2.23;;;15.60;77.20;;;;;;5051123;28;20235;-83
2021/10/15 11:18:46;;;;;;;7.25;2.42;;;15.80;76.30;;;;;;5046701;28;20201;-83
2021/10/15 11:21:12;;;;;;;6.75;2.30;;;15.90;75.60;;;;;;5047650;28;20208;-83
2021/10/15 11:23:39;;;;;;;5.88;1.77;;;16.00;75.50;;;;;;5041959;28;20289;-83
2021/10/15 11:26:05;;;;;;;3.70;2.17;;;16.00;75.30;;;;;;5035812;28;20225;-83
2021/10/15 11:28:31;;;;;;;13.73;3.58;;;16.00;75.00;;;;;;5064172;28;20169;-83
2021/10/15 11:30:58;;;;;;;10.25;3.53;;;16.20;73.70;;;;;;5043747;28;20240;-83
2021/10/15 11:33:25;;;;;;;4.72;2.17;;;16.20;72.30;;;;;;5040241;28;20687;-83
2021/10/15 11:35:52;;;;;;;8.52;2.45;;;15.90;72.70;;;;;;5041893;28;20204;-83
2021/10/15 11:38:25;;;;;;;6.15;2.20;;;15.40;73.50;;;;;;5044315;28;20177;-83
2021/10/15 11:40:52;;;;;;;8.48;2.58;;;15.50;73.80;;;;;;5038629;28;20265;-83
2021/10/15 11:43:22;;;;;;;9.88;1.75;;;15.70;74.60;;;;;;5022314;28;20193;-84
2021/10/15 11:45:54;;;;;;;4.70;2.00;;;15.60;73.30;;;;;;5022365;28;20186;-84
2021/10/15 11:48:25;;;;;;;9.25;2.38;;;15.70;73.10;;;;;;5036399;28;20181;-84
2021/10/15 11:51:03;;;;;;;7.45;2.25;;;15.60;72.60;;;;;;5039985;28;20164;-83
2021/10/15 11:53:34;;;;;;;7.35;2.65;;;15.50;72.30;;;;;;5022004;28;20200;-84
2021/10/15 11:56:04;;;;;;;7.78;2.50;;;15.50;72.20;;;;;;5051308;28;20292;-84
2021/10/15 11:58:34;;;;;;;6.72;1.83;;;15.50;72.40;;;;;;5052142;28;20166;-84
2021/10/15 12:01:00;;;;;;;16.70;2.60;;;15.50;72.10;;;;;;5037930;28;20182;-84
2021/10/15 12:03:45;;;;;;;16.53;2.50;;;15.60;72.60;;;;;;5038481;28;20211;-84
2021/10/15 12:06:12;;;;;;;9.80;2.30;;;15.70;72.30;;;;;;5040203;28;20455;-84
2021/10/15 12:08:39;;;;;;;10.38;2.80;;;15.70;72.10;;;;;;5040589;28;20628;-85
2021/10/15 12:11:11;;;;;;;8.50;2.50;;;15.70;71.30;;;;;;5037320;28;20268;-85
2021/10/15 12:13:37;;;;;;;8.05;2.17;;;15.80;70.80;;;;;;5030943;28;20296;-84
2021/10/15 12:16:24;;;;;;;6.67;2.73;;;15.70;71.60;;;;;;5020350;28;20644;-84
2021/10/15 12:18:59;;;;;;;11.95;1.98;;;15.70;70.50;;;;;;5055768;28;20403;-84
2021/10/15 12:21:43;;;;;;;6.07;2.00;;;15.70;70.90;;;;;;5039065;28;20185;-84
2021/10/15 12:24:31;;;;;;;8.70;1.92;;;15.60;68.30;;;;;;5038681;28;20259;-84
2021/10/15 12:27:07;;;;;;;10.18;2.30;;;15.50;68.10;;;;;;5025620;28;20703;-85
2021/10/15 12:29:36;;;;;;;9.43;2.30;;;15.60;68.60;;;;;;5033330;28;20178;-84
2021/10/15 12:32:08;;;;;;;10.98;2.75;;;15.50;67.50;;;;;;5019246;28;20268;-84
2021/10/15 12:34:55;;;;;;;7.18;2.38;;;15.40;67.50;;;;;;5036572;28;20189;-85
2021/10/15 12:37:50;;;;;;;6.18;2.13;;;15.60;66.90;;;;;;5021662;28;20181;-83
2021/10/15 12:40:22;;;;;;;6.00;2.95;;;15.60;66.50;;;;;;5012629;28;20281;-83
2021/10/15 12:43:15;;;;;;;3.97;1.95;;;15.70;66.80;;;;;;5058393;28;20181;-82
2021/10/15 12:45:50;;;;;;;12.30;2.78;;;15.70;65.70;;;;;;5013711;28;20190;-82
2021/10/15 12:48:16;;;;;;;11.50;2.28;;;15.80;64.60;;;;;;5021635;28;20173;-82
2021/10/15 12:50:56;;;;;;;6.05;2.40;;;16.10;64.00;;;;;;5039430;28;20174;-83
2021/10/15 12:53:21;;;;;;;7.05;2.25;;;16.30;62.80;;;;;;5021573;28;20205;-83
2021/10/15 12:56:15;;;;;;;5.83;2.27;;;16.30;62.80;;;;;;5022207;28;20170;-82
2021/10/15 12:58:54;;;;;;;5.25;2.25;;;16.50;62.00;;;;;;5030765;28;20243;-82
2021/10/15 13:01:27;;;;;;;11.48;1.90;;;16.50;59.70;;;;;;5039929;28;20178;-82